Tall Timbers, Maryland
Current Conditions -  °F | °C
As of 11:17 PM on Monday 22 Dec 2014 (Local Time) from KNUI Reporting Station
Light Rain Light Rain  
Wind Chill:   Ceiling: 500
Heat Index:   Visibility: 2.5mi
Dew Point:   Wind: 6mph
Humidity: 89%   Direction: 10°N
Pressure: 30.03"   Gusts: NA
Location:  38.17°N, 76.55°W
Report Text: KNUI 230417Z AUTO 01005KT 2 1/2SM -RA BR OVC005 06/04 A3003 RMK AO2 RAB06 P0001 T00560039
Loading
Personal Weather Stations






























Interactive Weather Map New forecast layout! Learn more

10-Day Weather Forecast

Advertisements
Track Severe Weather on mobile